createdAt,value
2022-12-25T00:01:23.609Z,81.65
2022-12-25T00:03:52.035Z,81.92
2022-12-25T00:06:19.651Z,80.72
2022-12-25T00:08:46.847Z,81.53
2022-12-25T00:11:17.674Z,79.62
2022-12-25T00:13:47.485Z,81.23
2022-12-25T00:16:19.974Z,80.69
2022-12-25T00:18:48.111Z,82.70
2022-12-25T00:21:15.259Z,81.23
2022-12-25T00:23:43.112Z,79.49
2022-12-25T00:26:17.102Z,81.15
2022-12-25T00:28:44.667Z,82.46
2022-12-25T00:31:15.665Z,81.46
2022-12-25T00:33:46.727Z,81.64
2022-12-25T00:36:16.957Z,81.42
2022-12-25T00:38:44.535Z,80.22
2022-12-25T00:41:18.254Z,81.15
2022-12-25T00:43:45.534Z,81.08
2022-12-25T00:46:14.069Z,81.97
2022-12-25T00:48:41.762Z,81.38
2022-12-25T00:51:12.193Z,81.34
2022-12-25T00:53:39.616Z,82.89
2022-12-25T00:56:07.508Z,82.42
2022-12-25T00:58:35.505Z,81.48
2022-12-25T01:01:04.167Z,81.71
2022-12-25T01:03:31.616Z,82.16
2022-12-25T01:06:02.664Z,81.65
2022-12-25T01:08:33.395Z,80.08
2022-12-25T01:11:04.556Z,83.17
2022-12-25T01:13:34.637Z,82.34
2022-12-25T01:16:10.818Z,83.61
2022-12-25T01:18:39.307Z,82.74
2022-12-25T01:21:09.212Z,82.07
2022-12-25T01:23:36.981Z,81.94
2022-12-25T01:26:10.193Z,81.49
2022-12-25T01:28:38.504Z,82.57
2022-12-25T01:31:12.058Z,81.60
2022-12-25T01:33:40.932Z,81.71
2022-12-25T01:36:25.405Z,83.15
2022-12-25T01:38:53.929Z,83.63
2022-12-25T01:41:25.083Z,82.48
2022-12-25T01:44:36.221Z,81.11
2022-12-25T01:47:05.052Z,80.47
2022-12-25T01:49:36.338Z,79.90
2022-12-25T01:52:10.704Z,80.88
2022-12-25T01:54:52.929Z,82.43
2022-12-25T01:57:26.726Z,81.24
2022-12-25T01:59:55.217Z,82.92
2022-12-25T02:02:22.691Z,84.03
2022-12-25T02:05:01.897Z,81.42
2022-12-25T02:07:32.862Z,83.96
2022-12-25T02:09:59.880Z,83.62
2022-12-25T02:12:32.296Z,83.07
2022-12-25T02:15:07.005Z,80.43
2022-12-25T02:18:26.933Z,82.83
2022-12-25T02:21:26.628Z,83.06
2022-12-25T02:24:17.135Z,81.25
2022-12-25T02:27:11.302Z,80.49
2022-12-25T02:30:11.320Z,81.83
2022-12-25T02:33:20.613Z,80.70
2022-12-25T02:35:53.716Z,80.51
2022-12-25T02:38:36.881Z,83.71
2022-12-25T02:41:16.004Z,83.57
2022-12-25T02:44:05.081Z,83.60
2022-12-25T02:46:52.016Z,83.21
2022-12-25T02:49:45.643Z,82.60
2022-12-25T02:52:37.783Z,81.81
2022-12-25T02:55:35.779Z,83.23
2022-12-25T02:58:36.457Z,82.48
2022-12-25T03:01:29.343Z,83.41
2022-12-25T03:04:20.486Z,81.12
2022-12-25T03:07:15.552Z,79.88
2022-12-25T03:10:27.197Z,82.14
2022-12-25T03:13:09.798Z,82.09
2022-12-25T03:15:56.023Z,81.26
2022-12-25T03:18:27.745Z,80.53
2022-12-25T03:21:14.006Z,80.22
2022-12-25T03:24:02.251Z,80.42
2022-12-25T03:26:48.760Z,84.88
2022-12-25T03:29:35.687Z,81.75
2022-12-25T03:32:36.220Z,83.02
2022-12-25T03:35:30.816Z,83.91
2022-12-25T03:38:49.627Z,82.33
2022-12-25T03:41:34.866Z,83.73
2022-12-25T03:44:59.749Z,80.12
2022-12-25T03:47:54.540Z,80.24
2022-12-25T03:51:14.824Z,80.72
2022-12-25T03:54:09.356Z,83.13
2022-12-25T03:56:57.726Z,82.71
2022-12-25T03:59:43.597Z,82.02
2022-12-25T04:02:29.563Z,80.57
2022-12-25T04:05:15.509Z,81.87
2022-12-25T04:08:00.924Z,82.07
2022-12-25T04:10:46.284Z,81.24
2022-12-25T04:13:32.418Z,81.62
2022-12-25T04:16:18.402Z,81.58
2022-12-25T04:19:04.256Z,81.14
2022-12-25T04:21:49.467Z,80.82
2022-12-25T04:24:35.333Z,81.73
2022-12-25T04:27:20.666Z,83.08
2022-12-25T04:30:06.069Z,80.97
2022-12-25T04:32:51.552Z,82.22
2022-12-25T04:35:36.928Z,84.01
2022-12-25T04:38:03.804Z,81.64
2022-12-25T04:40:30.668Z,82.01
2022-12-25T04:42:57.584Z,81.41
2022-12-25T04:45:24.493Z,80.28
2022-12-25T04:47:51.512Z,80.26
2022-12-25T04:50:18.732Z,79.93
2022-12-25T04:52:45.665Z,79.41
2022-12-25T04:55:12.717Z,80.65
2022-12-25T04:57:40.265Z,80.02
2022-12-25T05:00:08.132Z,79.79
2022-12-25T05:02:35.167Z,79.72
2022-12-25T05:05:02.461Z,79.78
2022-12-25T05:07:29.586Z,79.78
2022-12-25T05:09:56.555Z,80.59
2022-12-25T05:12:23.680Z,80.65
2022-12-25T05:14:50.544Z,81.49
2022-12-25T05:17:17.469Z,80.66
2022-12-25T05:19:44.373Z,82.65
2022-12-25T05:22:11.251Z,83.09
2022-12-25T05:24:38.770Z,83.10
2022-12-25T05:27:05.646Z,82.86
2022-12-25T05:29:32.669Z,81.71
2022-12-25T05:31:59.563Z,82.08
2022-12-25T05:34:26.441Z,82.52
2022-12-25T05:36:53.416Z,81.05
2022-12-25T05:39:20.495Z,80.64
2022-12-25T05:41:47.371Z,82.27
2022-12-25T05:44:14.383Z,80.57
2022-12-25T05:46:41.360Z,81.90
2022-12-25T05:49:08.780Z,81.61
2022-12-25T05:51:35.828Z,82.00
2022-12-25T05:54:02.694Z,82.83
2022-12-25T05:56:30.008Z,82.35
2022-12-25T05:58:57.534Z,83.17
2022-12-25T06:01:28.774Z,82.34
2022-12-25T06:03:57.275Z,82.13
2022-12-25T06:06:24.324Z,82.49
2022-12-25T06:08:55.022Z,81.56
2022-12-25T06:11:22.300Z,82.93
2022-12-25T06:13:52.910Z,84.02
2022-12-25T06:16:20.642Z,85.93
2022-12-25T06:18:52.195Z,86.82
2022-12-25T06:21:19.194Z,85.02
2022-12-25T06:23:46.422Z,82.90
2022-12-25T06:26:19.552Z,84.67
2022-12-25T06:28:47.318Z,85.45
2022-12-25T06:31:18.883Z,85.31
2022-12-25T06:33:46.523Z,83.57
2022-12-25T06:36:25.781Z,83.91
2022-12-25T06:38:53.735Z,83.56
2022-12-25T06:41:27.048Z,85.18
2022-12-25T06:43:58.108Z,81.80
2022-12-25T06:46:28.146Z,81.15
2022-12-25T06:48:59.375Z,82.65
2022-12-25T06:51:30.801Z,80.07
2022-12-25T06:53:59.408Z,81.71
2022-12-25T06:56:28.335Z,84.01
2022-12-25T06:58:59.011Z,82.30
2022-12-25T07:01:48.027Z,81.21
2022-12-25T07:04:23.669Z,80.97
2022-12-25T07:06:50.569Z,82.16
2022-12-25T07:09:17.455Z,81.49
2022-12-25T07:11:44.739Z,83.64
2022-12-25T07:14:24.264Z,83.46
2022-12-25T07:16:52.050Z,84.85
2022-12-25T07:19:19.261Z,83.05
2022-12-25T07:21:46.365Z,82.85
2022-12-25T07:24:22.000Z,82.14
2022-12-25T07:26:50.945Z,81.38
2022-12-25T07:29:19.630Z,80.20
2022-12-25T07:31:47.323Z,80.14
2022-12-25T07:34:14.243Z,80.79
2022-12-25T07:36:41.096Z,81.82
2022-12-25T07:39:10.336Z,82.48
2022-12-25T07:41:37.381Z,82.87
2022-12-25T07:44:14.744Z,83.11
2022-12-25T07:46:41.849Z,82.02
2022-12-25T07:49:09.611Z,80.43
2022-12-25T07:51:37.022Z,79.13
2022-12-25T07:54:04.098Z,79.69
2022-12-25T07:56:31.155Z,80.36
2022-12-25T07:58:58.225Z,78.58
2022-12-25T08:01:28.519Z,79.35
2022-12-25T08:04:00.305Z,80.86
2022-12-25T08:06:31.666Z,80.19
2022-12-25T08:09:06.743Z,80.36
2022-12-25T08:11:34.002Z,81.50
2022-12-25T08:14:01.222Z,81.58
2022-12-25T08:16:28.306Z,81.30
2022-12-25T08:18:55.219Z,80.07
2022-12-25T08:21:22.436Z,80.82
2022-12-25T08:23:49.687Z,81.49
2022-12-25T08:26:23.032Z,82.48
2022-12-25T08:28:51.459Z,82.79
2022-12-25T08:31:28.117Z,82.67
2022-12-25T08:33:58.244Z,85.22
2022-12-25T08:36:25.433Z,84.48
2022-12-25T08:38:58.525Z,84.34
2022-12-25T08:41:29.775Z,80.91
2022-12-25T08:43:56.693Z,81.50
2022-12-25T08:46:24.207Z,81.34
2022-12-25T08:48:51.188Z,82.58
2022-12-25T08:51:22.152Z,81.56
2022-12-25T08:53:51.406Z,79.26
2022-12-25T08:56:19.606Z,79.56
2022-12-25T08:58:47.052Z,79.79
2022-12-25T09:01:14.614Z,79.67
2022-12-25T09:03:42.971Z,80.87
2022-12-25T09:06:16.345Z,78.92
2022-12-25T09:08:48.691Z,79.91
2022-12-25T09:11:19.293Z,80.81
2022-12-25T09:13:48.054Z,82.35
2022-12-25T09:16:20.294Z,82.67
2022-12-25T09:18:47.818Z,83.18
2022-12-25T09:21:16.657Z,81.28
2022-12-25T09:23:44.268Z,82.91
2022-12-25T09:26:14.926Z,81.38
2022-12-25T09:28:48.406Z,80.54
2022-12-25T09:31:16.154Z,82.05
2022-12-25T09:33:43.116Z,81.95
2022-12-25T09:36:11.466Z,79.80
2022-12-25T09:38:38.590Z,81.13
2022-12-25T09:41:29.603Z,80.71
2022-12-25T09:44:21.683Z,78.73
2022-12-25T09:46:59.291Z,80.05
2022-12-25T09:49:49.997Z,81.65
2022-12-25T09:52:26.334Z,80.34
2022-12-25T09:55:21.186Z,80.28
2022-12-25T09:57:55.931Z,80.40
2022-12-25T10:00:27.822Z,80.21
2022-12-25T10:03:29.437Z,79.85
2022-12-25T10:06:25.189Z,79.41
2022-12-25T10:09:15.954Z,78.72
2022-12-25T10:12:10.805Z,77.84
2022-12-25T10:15:08.110Z,78.09
2022-12-25T10:17:59.394Z,75.68
2022-12-25T10:20:40.688Z,76.91
2022-12-25T10:23:18.052Z,77.23
2022-12-25T10:25:46.214Z,76.35
2022-12-25T10:28:21.328Z,76.73
2022-12-25T10:30:49.979Z,77.08
2022-12-25T10:33:17.488Z,74.30
2022-12-25T10:35:45.443Z,76.20
2022-12-25T10:38:18.900Z,75.52
2022-12-25T10:41:22.075Z,76.53
2022-12-25T10:43:57.166Z,77.25
2022-12-25T10:46:29.550Z,76.19
2022-12-25T10:49:00.576Z,75.30
2022-12-25T10:51:39.617Z,74.98
2022-12-25T10:54:30.459Z,75.65
2022-12-25T10:57:16.294Z,75.78
2022-12-25T10:59:49.775Z,74.95
2022-12-25T11:02:40.768Z,75.22
2022-12-25T11:05:14.227Z,75.56
2022-12-25T11:07:50.980Z,77.26
2022-12-25T11:10:44.007Z,77.01
2022-12-25T11:13:47.481Z,77.47
2022-12-25T11:16:26.165Z,76.22
2022-12-25T11:18:54.954Z,77.37
2022-12-25T11:21:26.864Z,77.94
2022-12-25T11:24:05.212Z,76.19
2022-12-25T11:26:53.052Z,75.66
2022-12-25T11:29:50.207Z,74.94
2022-12-25T11:32:30.525Z,73.56
2022-12-25T11:34:59.492Z,74.93
2022-12-25T11:37:48.192Z,75.44
2022-12-25T11:40:25.515Z,74.96
2022-12-25T11:43:12.359Z,74.85
2022-12-25T11:45:46.289Z,74.53
2022-12-25T11:48:31.590Z,76.56
2022-12-25T11:51:02.398Z,75.29
2022-12-25T11:53:48.529Z,74.36
2022-12-25T11:56:20.569Z,76.67
2022-12-25T11:59:00.507Z,75.84
2022-12-25T12:01:42.872Z,76.15
2022-12-25T12:04:43.239Z,75.38
2022-12-25T12:07:32.090Z,73.07
2022-12-25T12:10:47.186Z,74.69
2022-12-25T12:13:46.742Z,73.67
2022-12-25T12:16:13.688Z,73.07
2022-12-25T12:18:46.564Z,73.49
2022-12-25T12:21:27.508Z,74.39
2022-12-25T12:24:17.989Z,74.83
2022-12-25T12:26:47.311Z,75.34
2022-12-25T12:29:40.049Z,75.56
2022-12-25T12:32:43.891Z,72.31
2022-12-25T12:35:18.939Z,73.94
2022-12-25T12:38:14.562Z,73.64
2022-12-25T12:40:51.984Z,72.89
2022-12-25T12:43:52.895Z,71.98
2022-12-25T12:46:39.881Z,73.89
2022-12-25T12:49:35.005Z,75.60
2022-12-25T12:52:30.600Z,71.86
2022-12-25T12:55:16.971Z,72.01
2022-12-25T12:57:43.912Z,72.03
2022-12-25T13:00:21.236Z,71.96
2022-12-25T13:03:24.569Z,72.33
2022-12-25T13:06:14.722Z,71.06
2022-12-25T13:09:10.804Z,72.21
2022-12-25T13:11:43.969Z,72.74
2022-12-25T13:14:20.310Z,71.49
2022-12-25T13:16:51.560Z,76.22
2022-12-25T13:19:25.930Z,74.72
2022-12-25T13:22:00.448Z,73.12
2022-12-25T13:24:34.282Z,74.09
2022-12-25T13:27:02.379Z,72.20
2022-12-25T13:29:30.716Z,73.74
2022-12-25T13:32:03.869Z,74.67
2022-12-25T13:34:41.467Z,73.37
2022-12-25T13:37:16.298Z,75.21
2022-12-25T13:40:03.553Z,78.57
2022-12-25T13:42:34.398Z,77.33
2022-12-25T13:45:08.174Z,75.42
2022-12-25T13:47:40.627Z,75.42
2022-12-25T13:50:23.536Z,76.75
2022-12-25T13:52:52.364Z,75.71
2022-12-25T13:55:26.410Z,75.11
2022-12-25T13:58:04.457Z,74.52
2022-12-25T14:00:53.181Z,74.55
2022-12-25T14:03:42.911Z,74.29
2022-12-25T14:06:29.462Z,74.59
2022-12-25T14:08:58.819Z,76.15
2022-12-25T14:11:29.161Z,75.52
2022-12-25T14:14:06.701Z,76.44
2022-12-25T14:16:34.895Z,75.70
2022-12-25T14:19:03.609Z,76.72
2022-12-25T14:21:49.224Z,76.36
2022-12-25T14:24:17.406Z,74.85
2022-12-25T14:26:44.728Z,74.97
2022-12-25T14:29:18.189Z,75.24
2022-12-25T14:31:47.740Z,75.87
2022-12-25T14:34:21.810Z,74.31
2022-12-25T14:36:49.549Z,75.04
2022-12-25T14:39:47.128Z,74.20
2022-12-25T14:42:22.227Z,74.59
2022-12-25T14:45:24.794Z,75.47
2022-12-25T14:48:00.872Z,75.94
2022-12-25T14:50:41.205Z,75.57
2022-12-25T14:53:20.893Z,74.91
2022-12-25T14:55:54.994Z,75.62
2022-12-25T14:58:26.780Z,75.42
2022-12-25T15:01:00.954Z,75.43
2022-12-25T15:03:34.837Z,75.37
2022-12-25T15:06:03.188Z,75.91
2022-12-25T15:08:32.434Z,75.40
2022-12-25T15:11:02.201Z,75.83
2022-12-25T15:13:31.015Z,75.92
2022-12-25T15:16:09.059Z,76.86
2022-12-25T15:18:43.539Z,78.02
2022-12-25T15:21:25.842Z,75.31
2022-12-25T15:23:55.167Z,77.69
2022-12-25T15:26:22.795Z,76.55
2022-12-25T15:28:49.960Z,75.01
2022-12-25T15:31:25.315Z,75.77
2022-12-25T15:33:57.506Z,77.38
2022-12-25T15:36:26.047Z,74.84
2022-12-25T15:38:54.105Z,74.02
2022-12-25T15:41:46.374Z,74.16
2022-12-25T15:44:14.252Z,74.08
2022-12-25T15:46:41.513Z,72.81
2022-12-25T15:49:13.876Z,73.36
2022-12-25T15:51:42.239Z,71.35
2022-12-25T15:54:10.004Z,71.70
2022-12-25T15:56:53.800Z,70.52
2022-12-25T15:59:21.958Z,69.87
2022-12-25T16:01:55.504Z,71.43
2022-12-25T16:04:24.440Z,72.09
2022-12-25T16:06:52.405Z,70.91
2022-12-25T16:09:20.532Z,69.90
2022-12-25T16:11:49.025Z,69.97
2022-12-25T16:14:16.332Z,69.60
2022-12-25T16:16:43.303Z,68.93
2022-12-25T16:19:10.245Z,67.36
2022-12-25T16:21:44.171Z,68.67
2022-12-25T16:24:11.879Z,68.44
2022-12-25T16:26:38.954Z,66.75
2022-12-25T16:29:07.536Z,67.60
2022-12-25T16:31:39.191Z,68.63
2022-12-25T16:34:07.743Z,66.89
2022-12-25T16:36:35.742Z,67.44
2022-12-25T16:39:03.928Z,66.38
2022-12-25T16:41:30.921Z,66.56
2022-12-25T16:43:57.854Z,66.41
2022-12-25T16:46:24.812Z,67.40
2022-12-25T16:48:51.941Z,66.99
2022-12-25T16:51:21.230Z,66.19
2022-12-25T16:53:48.528Z,66.42
2022-12-25T16:56:20.453Z,67.34
2022-12-25T16:58:48.152Z,67.95
2022-12-25T17:01:18.637Z,69.41
2022-12-25T17:03:46.741Z,68.88
2022-12-25T17:06:23.148Z,67.24
2022-12-25T17:08:52.297Z,67.94
2022-12-25T17:11:24.264Z,67.94
2022-12-25T17:13:51.274Z,67.80
2022-12-25T17:16:22.856Z,67.43
2022-12-25T17:18:58.630Z,67.91
2022-12-25T17:21:26.599Z,67.96
2022-12-25T17:24:01.231Z,68.76
2022-12-25T17:26:30.753Z,69.05
2022-12-25T17:28:58.191Z,68.54
2022-12-25T17:31:25.478Z,68.27
2022-12-25T17:33:52.527Z,67.24
2022-12-25T17:36:21.488Z,67.21
2022-12-25T17:38:49.082Z,67.74
2022-12-25T17:41:18.732Z,68.13
2022-12-25T17:43:46.664Z,68.43
2022-12-25T17:46:15.978Z,67.25
2022-12-25T17:48:43.261Z,67.07
2022-12-25T17:51:16.009Z,65.51
2022-12-25T17:53:48.644Z,65.74
2022-12-25T17:56:17.662Z,66.23
2022-12-25T17:58:49.237Z,66.61
2022-12-25T18:01:17.147Z,65.66
2022-12-25T18:03:45.727Z,65.57
2022-12-25T18:06:17.223Z,67.14
2022-12-25T18:08:45.970Z,66.31
2022-12-25T18:11:17.020Z,66.71
2022-12-25T18:13:48.388Z,66.94
2022-12-25T18:16:16.408Z,69.21
2022-12-25T18:18:51.119Z,67.41
2022-12-25T18:21:21.062Z,67.13
2022-12-25T18:23:48.649Z,68.89
2022-12-25T18:26:15.749Z,67.94
2022-12-25T18:28:43.901Z,68.02
2022-12-25T18:31:23.342Z,67.86
2022-12-25T18:33:51.701Z,68.80
2022-12-25T18:36:23.699Z,68.63
2022-12-25T18:38:52.687Z,69.38
2022-12-25T18:41:21.295Z,68.43
2022-12-25T18:43:52.916Z,68.57
2022-12-25T18:46:23.859Z,68.32
2022-12-25T18:48:51.630Z,68.86
2022-12-25T18:51:18.720Z,69.57
2022-12-25T18:53:45.912Z,68.90
2022-12-25T18:56:15.860Z,68.81
2022-12-25T18:58:43.487Z,69.22
2022-12-25T19:01:17.515Z,67.18
2022-12-25T19:03:46.115Z,71.17
2022-12-25T19:06:26.466Z,68.63
2022-12-25T19:08:54.626Z,70.75
2022-12-25T19:11:22.830Z,69.67
2022-12-25T19:13:50.225Z,68.96
2022-12-25T19:16:17.818Z,69.69
2022-12-25T19:18:45.915Z,69.88
2022-12-25T19:21:12.935Z,69.93
2022-12-25T19:23:41.051Z,68.76
2022-12-25T19:26:10.362Z,69.06
2022-12-25T19:28:38.691Z,69.01
2022-12-25T19:31:07.911Z,70.08
2022-12-25T19:33:38.344Z,70.29
2022-12-25T19:36:16.303Z,69.75
2022-12-25T19:38:44.378Z,68.83
2022-12-25T19:41:18.137Z,67.58
2022-12-25T19:43:49.966Z,68.98
2022-12-25T19:46:32.170Z,70.15
2022-12-25T19:49:04.235Z,70.04
2022-12-25T19:51:36.253Z,71.91
2022-12-25T19:54:05.337Z,71.35
2022-12-25T19:56:33.722Z,70.99
2022-12-25T19:59:01.164Z,68.95
2022-12-25T20:01:30.087Z,69.79
2022-12-25T20:03:57.595Z,70.22
2022-12-25T20:06:29.819Z,69.81
2022-12-25T20:09:08.927Z,69.65
2022-12-25T20:11:37.703Z,68.40
2022-12-25T20:14:07.184Z,69.35
2022-12-25T20:16:38.111Z,72.83
2022-12-25T20:19:06.208Z,72.20
2022-12-25T20:21:33.539Z,71.50
2022-12-25T20:24:00.721Z,72.01
2022-12-25T20:26:31.922Z,70.86
2022-12-25T20:28:59.438Z,71.27
2022-12-25T20:31:31.115Z,72.30
2022-12-25T20:34:04.019Z,75.21
2022-12-25T20:36:36.339Z,74.38
2022-12-25T20:39:09.312Z,74.90
2022-12-25T20:41:37.324Z,75.58
2022-12-25T20:44:06.423Z,76.40
2022-12-25T20:46:33.419Z,75.31
2022-12-25T20:49:02.376Z,73.73
2022-12-25T20:51:29.381Z,74.08
2022-12-25T20:53:57.029Z,75.68
2022-12-25T20:56:27.107Z,74.59
2022-12-25T20:58:59.856Z,76.03
2022-12-25T21:01:30.097Z,75.12
2022-12-25T21:03:58.302Z,75.62
2022-12-25T21:06:25.612Z,75.62
2022-12-25T21:08:52.990Z,75.22
2022-12-25T21:11:21.349Z,73.86
2022-12-25T21:13:48.884Z,74.25
2022-12-25T21:16:20.418Z,75.56
2022-12-25T21:18:49.365Z,73.61
2022-12-25T21:21:16.401Z,75.96
2022-12-25T21:23:43.543Z,75.51
2022-12-25T21:26:23.460Z,74.02
2022-12-25T21:28:55.034Z,74.30
2022-12-25T21:31:23.726Z,76.10
2022-12-25T21:33:54.784Z,75.05
2022-12-25T21:36:31.769Z,74.79
2022-12-25T21:39:07.868Z,77.41
2022-12-25T21:41:37.673Z,77.10
2022-12-25T21:44:05.452Z,77.57
2022-12-25T21:46:32.675Z,75.76
2022-12-25T21:49:00.454Z,76.61
2022-12-25T21:51:52.297Z,76.29
2022-12-25T21:54:23.777Z,75.90
2022-12-25T21:56:51.192Z,77.97
2022-12-25T21:59:21.937Z,76.46
2022-12-25T22:01:50.854Z,76.67
2022-12-25T22:04:20.448Z,76.53
2022-12-25T22:07:06.799Z,77.03
2022-12-25T22:09:33.932Z,77.47
2022-12-25T22:12:19.798Z,75.96
2022-12-25T22:15:02.449Z,75.98
2022-12-25T22:17:58.190Z,76.03
2022-12-25T22:20:38.085Z,74.71
2022-12-25T22:23:05.308Z,76.57
2022-12-25T22:25:32.265Z,74.91
2022-12-25T22:28:00.222Z,74.55
2022-12-25T22:30:28.788Z,74.83
2022-12-25T22:32:56.123Z,77.03
2022-12-25T22:35:23.606Z,76.45
2022-12-25T22:37:51.034Z,74.77
2022-12-25T22:40:19.788Z,74.77
2022-12-25T22:42:47.038Z,75.42
2022-12-25T22:45:14.587Z,74.64
2022-12-25T22:47:41.925Z,74.74
2022-12-25T22:50:11.029Z,75.00
2022-12-25T22:52:38.681Z,74.13
2022-12-25T22:55:07.918Z,73.96
2022-12-25T22:57:35.174Z,74.76
2022-12-25T23:00:02.895Z,74.48
2022-12-25T23:02:29.949Z,73.44
2022-12-25T23:04:57.085Z,74.25
2022-12-25T23:07:24.041Z,74.04
2022-12-25T23:09:52.180Z,74.13
2022-12-25T23:12:38.043Z,73.86
2022-12-25T23:15:05.784Z,73.20
2022-12-25T23:17:51.196Z,75.75
2022-12-25T23:20:36.409Z,74.76
2022-12-25T23:23:21.751Z,75.09
2022-12-25T23:26:07.406Z,74.65
2022-12-25T23:28:58.858Z,73.72
2022-12-25T23:31:39.625Z,75.42
2022-12-25T23:34:08.094Z,75.41
2022-12-25T23:36:35.601Z,74.83
2022-12-25T23:39:09.745Z,74.36
2022-12-25T23:41:39.397Z,74.94
2022-12-25T23:44:07.700Z,74.96
2022-12-25T23:46:34.882Z,75.74
2022-12-25T23:49:02.025Z,76.25
2022-12-25T23:51:29.229Z,75.95
2022-12-25T23:53:56.516Z,75.91
2022-12-25T23:56:23.440Z,75.13
2022-12-25T23:58:52.000Z,75.37
